Yale, Illinois
Current Conditions -  °F | °C
As of 12:15 AM on Wednesday 28 Jan 2015 (Local Time) from KRSV Reporting Station
Haze Haze  
Wind Chill: 22°   Ceiling: Unl
Heat Index: 22°   Visibility: 5mi
Dew Point: 22°   Wind: 0mph
Humidity: 98%   Direction: NA
Pressure: 30.31"   Gusts: NA
Location:  39.12°N, 88.02°W
Report Text: KRSV 280615Z AUTO 00000KT 5SM BR CLR M05/M06 A3031 RMK AO2 T10531056
Loading
Personal Weather Stations






























Interactive Weather Map New forecast layout! Learn more

10-Day Weather Forecast

Advertisements
Track Severe Weather on mobile